Time;durP1;ratioP1;P1;durP2;ratioP2;P2;SDS_P1;SDS_P2;PMS_P1;PMS_P2;Temp;Humidity;BMP_temperature;BMP_pressure;BME280_temperature;BME280_humidity;BME280_pressure;Samples;Min_cycle;Max_cycle;Signal;HPM_P1;HPM_P2
2021/08/01 00:01:35;;;;;;;10.23;8.85;;;614.40;2432.00;;;;;;5039009;28;20112;-76
2021/08/01 00:04:01;;;;;;;10.93;9.07;;;614.60;2432.00;;;;;;5056433;28;20017;-77
2021/08/01 00:06:27;;;;;;;11.93;9.85;;;614.60;2432.00;;;;;;5038876;28;20115;-78
2021/08/01 00:08:53;;;;;;;13.27;9.95;;;614.40;2432.00;;;;;;5038732;28;20079;-77
2021/08/01 00:11:19;;;;;;;12.25;9.43;;;589.70;2432.00;;;;;;5038195;28;20032;-77
2021/08/01 00:13:45;;;;;;;15.45;10.55;;;589.60;2432.00;;;;;;5038716;28;20021;-77
2021/08/01 00:16:11;;;;;;;14.18;10.40;;;589.50;2432.00;;;;;;5038591;28;20366;-76
2021/08/01 00:18:37;;;;;;;12.32;10.02;;;589.40;2432.00;;;;;;5038421;28;20045;-79
2021/08/01 00:21:04;;;;;;;12.48;10.10;;;589.50;2432.00;;;;;;5038510;28;20450;-78
2021/08/01 00:23:30;;;;;;;14.60;9.93;;;589.40;2432.00;;;;;;5056453;28;20122;-76
2021/08/01 00:25:57;;;;;;;16.45;10.65;;;589.40;2432.00;;;;;;5038271;28;20417;-77
2021/08/01 00:28:23;;;;;;;14.45;9.32;;;589.50;2432.00;;;;;;5038335;28;20475;-76
2021/08/01 00:30:49;;;;;;;16.85;10.65;;;589.60;2432.00;;;;;;5038535;28;20045;-78
2021/08/01 00:33:15;;;;;;;12.30;10.27;;;589.40;2432.00;;;;;;5038031;28;20054;-79
2021/08/01 00:35:40;;;;;;;12.52;10.10;;;589.40;2432.00;;;;;;5038302;28;20443;-78
2021/08/01 00:38:07;;;;;;;14.65;9.50;;;589.40;2432.00;;;;;;5038183;28;20029;-77
2021/08/01 00:40:33;;;;;;;12.70;10.32;;;589.60;2432.00;;;;;;5037763;28;20027;-76
2021/08/01 00:42:59;;;;;;;11.82;9.93;;;589.50;2432.00;;;;;;5038147;28;20036;-78
2021/08/01 00:45:25;;;;;;;12.45;10.35;;;589.40;2432.00;;;;;;5038036;28;20025;-77
2021/08/01 00:47:51;;;;;;;14.45;10.52;;;589.40;2432.00;;;;;;5055463;28;20099;-76
2021/08/01 00:50:16;;;;;;;10.95;9.43;;;589.50;2432.00;;;;;;5038118;28;20029;-76
2021/08/01 00:52:46;;;;;;;11.95;9.23;;;589.50;2432.00;;;;;;5037660;28;20017;-78
2021/08/01 00:55:12;;;;;;;11.55;9.60;;;589.60;2432.00;;;;;;5037134;28;20060;-77
2021/08/01 00:57:38;;;;;;;11.98;10.27;;;589.50;2432.00;;;;;;5037537;28;20048;-78
2021/08/01 01:00:11;;;;;;;15.65;10.68;;;589.50;2432.00;;;;;;5037414;28;20024;-76
2021/08/01 01:02:38;;;;;;;11.43;10.23;;;589.40;2432.00;;;;;;5037883;28;20032;-77
2021/08/01 01:05:16;;;;;;;12.77;10.10;;;589.20;2432.00;;;;;;5037716;28;20017;-76
2021/08/01 01:08:02;;;;;;;14.23;10.05;;;589.40;2432.00;;;;;;5037595;28;20025;-80
2021/08/01 01:10:41;;;;;;;14.70;10.13;;;589.20;2432.00;;;;;;5037765;28;20031;-77
2021/08/01 01:13:15;;;;;;;16.45;11.55;;;589.00;2432.00;;;;;;5037671;28;20032;-77
2021/08/01 01:15:50;;;;;;;16.98;10.40;;;588.80;2432.00;;;;;;5055316;28;20021;-78
2021/08/01 01:18:22;;;;;;;12.18;10.73;;;;;;;;;;5037735;28;20036;-78
2021/08/01 01:20:48;;;;;;;15.20;12.32;;;;;;;;;;5037466;28;20111;-78
2021/08/01 01:23:33;;;;;;;20.45;10.57;;;;;;;;;;5037117;28;20063;-77
2021/08/01 01:26:01;;;;;;;14.82;10.43;;;;;;;;;;5055229;28;20071;-79
2021/08/01 01:28:38;;;;;;;12.23;9.98;;;;;;;;;;5054594;28;20023;-76
2021/08/01 01:31:10;;;;;;;12.23;10.85;;;;;;;;;;5037519;28;20783;-77
2021/08/01 01:33:36;;;;;;;11.85;10.43;;;;;;;;;;5055230;28;20032;-78
2021/08/01 01:36:05;;;;;;;12.88;10.70;;;;;;;;;;5036935;28;20466;-77
2021/08/01 01:38:32;;;;;;;18.95;11.15;;;;;;;;;;5054873;28;20031;-77
2021/08/01 01:41:00;;;;;;;13.68;10.18;;;;;;;;;;5037108;28;20021;-78
2021/08/01 01:43:26;;;;;;;13.48;11.25;;;;;;;;;;5036881;28;20484;-78
2021/08/01 01:45:53;;;;;;;11.85;9.38;;;;;;;;;;5037127;28;20477;-77
2021/08/01 01:48:19;;;;;;;11.98;10.38;;;;;;;;;;5054976;28;20473;-78
2021/08/01 01:50:46;;;;;;;13.98;10.77;;;;;;;;;;5036580;28;20159;-77
2021/08/01 01:53:12;;;;;;;16.17;10.13;;;;;;;;;;5037108;28;20020;-79
2021/08/01 01:55:40;;;;;;;13.73;9.52;;;;;;;;;;5037007;28;20075;-78
2021/08/01 01:58:08;;;;;;;11.45;9.93;;;;;;;;;;5032964;28;20430;-77
2021/08/01 02:00:34;;;;;;;11.75;9.57;;;589.10;2432.00;;;;;;5033458;28;20481;-76
2021/08/01 02:03:00;;;;;;;10.00;8.65;;;;;;;;;;5033094;28;20021;-78
2021/08/01 02:05:26;;;;;;;14.18;9.18;;;589.10;2432.00;;;;;;5033405;28;20474;-77
2021/08/01 02:07:51;;;;;;;13.93;9.00;;;588.90;2432.00;;;;;;5032805;28;20048;-77
2021/08/01 02:10:38;;;;;;;9.65;8.65;;;564.10;2432.00;;;;;;5034509;28;20510;-76
2021/08/01 02:13:07;;;;;;;12.00;9.25;;;588.80;2432.00;;;;;;5033365;28;20028;-78
2021/08/01 02:15:45;;;;;;;14.20;9.30;;;564.00;2432.00;;;;;;5034701;28;20059;-76
2021/08/01 02:18:24;;;;;;;19.08;10.15;;;563.60;2432.00;;;;;;5042291;28;20045;-75
2021/08/01 02:20:51;;;;;;;12.73;10.05;;;563.80;2432.00;;;;;;5047580;28;20124;-75
2021/08/01 02:23:19;;;;;;;13.18;9.75;;;;;;;;;;5048231;28;20022;-75
2021/08/01 02:25:46;;;;;;;11.82;9.27;;;;;;;;;;5048606;28;20026;-74
2021/08/01 02:28:12;;;;;;;12.45;8.30;;;;;;;;;;5046130;28;20017;-77
2021/08/01 02:30:39;;;;;;;11.52;8.55;;;;;;;;;;5036672;28;20022;-77
2021/08/01 02:33:05;;;;;;;12.25;10.20;;;;;;;;;;5038011;28;20025;-76
2021/08/01 02:35:32;;;;;;;15.10;9.57;;;;;;;;;;5036804;28;20100;-76
2021/08/01 02:37:58;;;;;;;11.25;8.95;;;;;;;;;;5032866;28;20026;-76
2021/08/01 02:40:26;;;;;;;11.30;8.85;;;;;;;;;;5033690;28;20025;-76
2021/08/01 02:42:53;;;;;;;13.48;9.00;;;;;;;;;;5032872;28;20467;-77
2021/08/01 02:45:19;;;;;;;17.17;9.15;;;;;;;;;;5032547;28;20032;-77
2021/08/01 02:47:46;;;;;;;9.73;8.43;;;;;;;;;;5033643;28;20461;-78
2021/08/01 02:50:14;;;;;;;13.05;8.82;;;;;;;;;;5033573;28;20462;-77
2021/08/01 02:52:44;;;;;;;10.32;8.05;;;;;;;;;;5033621;28;20017;-78
2021/08/01 02:55:12;;;;;;;10.75;9.02;;;;;;;;;;5032442;28;20167;-78
2021/08/01 02:57:39;;;;;;;10.93;9.18;;;;;;;;;;5032256;28;20064;-76
2021/08/01 03:00:05;;;;;;;10.48;8.75;;;;;;;;;;5031820;28;20080;-77
2021/08/01 03:02:32;;;;;;;11.35;8.57;;;;;;;;;;5032466;28;20024;-77
2021/08/01 03:04:58;;;;;;;9.93;8.82;;;;;;;;;;5033377;28;20021;-76
2021/08/01 03:07:25;;;;;;;11.20;8.02;;;;;;;;;;5032081;28;20044;-78
2021/08/01 03:09:54;;;;;;;9.45;8.25;;;;;;;;;;5032399;28;20455;-77
2021/08/01 03:12:20;;;;;;;10.57;8.43;;;;;;;;;;5032338;28;20024;-78
2021/08/01 03:14:47;;;;;;;11.07;7.90;;;;;;;;;;5033301;28;20022;-77
2021/08/01 03:17:13;;;;;;;10.23;8.38;;;;;;;;;;5032447;28;20454;-78
2021/08/01 03:19:39;;;;;;;9.32;8.23;;;;;;;;;;5036990;28;20032;-77
2021/08/01 03:22:06;;;;;;;10.68;8.93;;;;;;;;;;5036232;28;20109;-77
2021/08/01 03:24:32;;;;;;;9.85;7.72;;;;;;;;;;5036351;28;20020;-77
2021/08/01 03:26:59;;;;;;;16.95;8.95;;;;;;;;;;5036152;28;20017;-79
2021/08/01 03:29:25;;;;;;;13.00;8.13;;;;;;;;;;5036319;28;20089;-77
2021/08/01 03:31:51;;;;;;;10.60;8.85;;;;;;;;;;5036359;28;20542;-79
2021/08/01 03:34:17;;;;;;;12.68;8.52;;;538.50;2406.40;;;;;;5037118;28;20017;-79
2021/08/01 03:36:43;;;;;;;11.10;8.95;;;563.20;2432.00;;;;;;5036091;28;20466;-79
2021/08/01 03:39:09;;;;;;;10.75;8.52;;;563.20;2432.00;;;;;;5037259;28;20021;-78
2021/08/01 03:41:34;;;;;;;9.57;8.50;;;563.50;2432.00;;;;;;5035578;28;20025;-79
2021/08/01 03:44:00;;;;;;;10.93;7.68;;;563.50;2432.00;;;;;;5035903;28;20067;-77
2021/08/01 03:46:26;;;;;;;12.25;8.75;;;563.40;2432.00;;;;;;5036183;28;20059;-78
2021/08/01 03:48:52;;;;;;;11.23;9.20;;;563.50;2432.00;;;;;;5035590;28;20022;-76
2021/08/01 03:51:17;;;;;;;12.85;9.27;;;563.50;2432.00;;;;;;5035593;28;20488;-79
2021/08/01 03:53:43;;;;;;;11.82;8.05;;;563.30;2432.00;;;;;;5035811;28;20095;-79
2021/08/01 03:56:09;;;;;;;12.18;8.20;;;563.30;2432.00;;;;;;5036750;28;20021;-77
2021/08/01 03:58:35;;;;;;;10.23;9.05;;;563.60;2432.00;;;;;;5035297;28;20045;-77
2021/08/01 04:01:01;;;;;;;11.07;8.32;;;563.70;2432.00;;;;;;5035591;28;20076;-76
2021/08/01 04:03:27;;;;;;;10.68;9.23;;;563.70;2432.00;;;;;;5035414;28;20027;-77
2021/08/01 04:05:52;;;;;;;13.27;9.30;;;563.70;2432.00;;;;;;5035602;28;20032;-78
2021/08/01 04:08:18;;;;;;;9.82;8.82;;;563.50;2432.00;;;;;;5035576;28;20028;-78
2021/08/01 04:10:44;;;;;;;11.45;9.43;;;563.20;2432.00;;;;;;5034956;28;20451;-78
2021/08/01 04:13:09;;;;;;;13.18;9.65;;;538.20;2406.40;;;;;;5035491;28;20022;-80
2021/08/01 04:15:36;;;;;;;12.57;10.18;;;;;;;;;;5035440;28;20108;-76
2021/08/01 04:18:03;;;;;;;12.52;9.68;;;;;;;;;;5034995;28;20018;-78
2021/08/01 04:20:29;;;;;;;9.88;8.85;;;538.50;2406.40;;;;;;5035291;28;20033;-78
2021/08/01 04:22:55;;;;;;;13.10;9.82;;;537.90;2406.40;;;;;;5035314;28;20443;-77
2021/08/01 04:25:21;;;;;;;10.13;8.52;;;538.50;2406.40;;;;;;5035925;28;20026;-77
2021/08/01 04:27:48;;;;;;;10.27;8.85;;;538.50;2406.40;;;;;;5035189;28;20036;-76
2021/08/01 04:30:14;;;;;;;15.43;9.32;;;563.30;2432.00;;;;;;5033918;28;20374;-80
2021/08/01 04:32:40;;;;;;;11.20;9.38;;;538.50;2406.40;;;;;;5035288;28;20079;-76
2021/08/01 04:35:07;;;;;;;11.00;8.75;;;563.20;2432.00;;;;;;5034812;28;20029;-78
2021/08/01 04:37:33;;;;;;;13.40;9.35;;;563.30;2432.00;;;;;;5034775;28;20439;-77
2021/08/01 04:39:59;;;;;;;12.43;9.77;;;563.40;2432.00;;;;;;5034876;28;20068;-76
2021/08/01 04:42:24;;;;;;;12.75;9.65;;;563.40;2432.00;;;;;;5034934;28;20032;-77
2021/08/01 04:44:50;;;;;;;13.88;9.60;;;563.30;2432.00;;;;;;5034708;28;20108;-77
2021/08/01 04:47:16;;;;;;;10.52;9.32;;;563.30;2432.00;;;;;;5034874;28;20026;-77
2021/08/01 04:49:42;;;;;;;12.13;9.57;;;;;;;;;;5034902;28;20051;-78
2021/08/01 04:52:15;;;;;;;12.98;10.70;;;563.60;2432.00;;;;;;5035973;28;20062;-78
2021/08/01 04:54:41;;;;;;;21.60;11.68;;;;;;;;;;5034853;28;20017;-79
2021/08/01 04:57:08;;;;;;;12.13;10.82;;;;;;;;;;5041885;28;20041;-76
2021/08/01 04:59:37;;;;;;;12.82;10.43;;;;;;;;;;5037608;28;20375;-78
2021/08/01 05:02:04;;;;;;;13.70;10.70;;;;;;;;;;5056036;28;20017;-79
2021/08/01 05:04:30;;;;;;;13.50;9.90;;;;;;;;;;5037716;28;20120;-78
2021/08/01 05:06:56;;;;;;;12.77;10.80;;;;;;;;;;5055338;28;20024;-77
2021/08/01 05:09:22;;;;;;;12.40;10.25;;;;;;;;;;5037825;28;20339;-78
2021/08/01 05:11:49;;;;;;;11.60;9.68;;;;;;;;;;5055552;28;20021;-79
2021/08/01 05:14:15;;;;;;;10.80;9.70;;;;;;;;;;5037320;28;20021;-79
2021/08/01 05:16:41;;;;;;;11.48;9.63;;;;;;;;;;5055614;28;20024;-76
2021/08/01 05:19:07;;;;;;;15.05;9.32;;;;;;;;;;5037278;28;20020;-77
2021/08/01 05:21:34;;;;;;;11.43;9.95;;;;;;;;;;5055236;28;20025;-77
2021/08/01 05:24:00;;;;;;;15.27;9.48;;;;;;;;;;5037633;28;20025;-78
2021/08/01 05:26:26;;;;;;;16.75;12.63;;;;;;;;;;5037289;28;20043;-79
2021/08/01 05:28:52;;;;;;;14.10;10.00;;;;;;;;;;5037450;28;20020;-77
2021/08/01 05:31:18;;;;;;;11.60;10.05;;;;;;;;;;5055005;28;20029;-77
2021/08/01 05:33:44;;;;;;;11.98;10.52;;;;;;;;;;5037073;28;20017;-78
2021/08/01 05:36:11;;;;;;;13.13;10.45;;;;;;;;;;5054917;28;20370;-78
2021/08/01 05:38:38;;;;;;;11.48;10.23;;;;;;;;;;5037440;28;20021;-78
2021/08/01 05:41:04;;;;;;;14.70;11.90;;;;;;;;;;5037013;28;20116;-77
2021/08/01 05:43:30;;;;;;;16.15;11.75;;;;;;;;;;5055012;28;20067;-77
2021/08/01 05:45:57;;;;;;;16.33;10.77;;;;;;;;;;5037313;28;20052;-78
2021/08/01 05:48:24;;;;;;;16.02;11.07;;;;;;;;;;5054852;28;20021;-78
2021/08/01 05:50:50;;;;;;;14.63;10.55;;;;;;;;;;5055593;28;20025;-78
2021/08/01 05:53:20;;;;;;;21.52;11.32;;;;;;;;;;5037119;28;20021;-78
2021/08/01 05:55:47;;;;;;;15.13;10.07;;;;;;;;;;5037156;28;20362;-77
2021/08/01 05:58:13;;;;;;;14.13;10.93;;;;;;;;;;5036834;28;20044;-76
2021/08/01 06:00:39;;;;;;;15.38;10.93;;;;;;;;;;5054869;28;20108;-76
2021/08/01 06:03:05;;;;;;;15.43;10.65;;;;;;;;;;5036923;28;20024;-77
2021/08/01 06:05:31;;;;;;;15.43;10.73;;;;;;;;;;5039306;28;20455;-78
2021/08/01 06:07:57;;;;;;;16.20;10.20;;;;;;;;;;5042531;28;20111;-78
2021/08/01 06:10:23;;;;;;;12.52;10.70;;;;;;;;;;5036671;28;20070;-77
2021/08/01 06:12:50;;;;;;;15.55;9.65;;;;;;;;;;5036700;28;20175;-77
2021/08/01 06:15:16;;;;;;;15.50;11.13;;;;;;;;;;5036644;28;20013;-78
2021/08/01 06:17:42;;;;;;;13.23;10.55;;;;;;;;;;5054219;28;20564;-78
2021/08/01 06:20:10;;;;;;;20.08;10.82;;;;;;;;;;5037093;28;20047;-78
2021/08/01 06:22:36;;;;;;;11.63;9.25;;;;;;;;;;5036634;28;20044;-78
2021/08/01 06:25:02;;;;;;;13.65;9.82;;;;;;;;;;5036457;28;20021;-77
2021/08/01 06:27:28;;;;;;;13.82;9.65;;;;;;;;;;5036112;28;20021;-77
2021/08/01 06:29:54;;;;;;;14.25;9.75;;;;;;;;;;5053939;28;20017;-78
2021/08/01 06:32:20;;;;;;;13.93;9.88;;;;;;;;;;5036232;28;20378;-78
2021/08/01 06:34:46;;;;;;;11.73;9.32;;;;;;;;;;5036298;28;20083;-78
2021/08/01 06:37:12;;;;;;;11.07;8.43;;;;;;;;;;5036131;28;20473;-78
2021/08/01 06:39:38;;;;;;;13.68;10.02;;;;;;;;;;5054108;28;20100;-78
2021/08/01 06:42:04;;;;;;;16.20;11.00;;;;;;;;;;5036231;28;20044;-77
2021/08/01 06:44:30;;;;;;;14.70;9.18;;;;;;;;;;5035862;28;20013;-77
2021/08/01 06:46:57;;;;;;;11.50;9.68;;;;;;;;;;5035888;28;20467;-77
2021/08/01 06:49:23;;;;;;;11.82;9.35;;;;;;;;;;5036001;28;20028;-79
2021/08/01 06:51:49;;;;;;;13.50;9.93;;;;;;;;;;5053519;28;20021;-78
2021/08/01 06:54:15;;;;;;;16.10;9.02;;;;;;;;;;5035283;28;20024;-77
2021/08/01 06:56:41;;;;;;;21.00;10.93;;;;;;;;;;5053881;28;20080;-78
2021/08/01 06:59:07;;;;;;;12.68;7.60;;;;;;;;;;5035636;28;20082;-80
2021/08/01 07:01:33;;;;;;;13.18;8.13;;;;;;;;;;5035746;28;20053;-77
2021/08/01 07:03:59;;;;;;;10.32;8.13;;;;;;;;;;5035699;28;20021;-77
2021/08/01 07:06:25;;;;;;;9.60;7.68;;;;;;;;;;5036131;28;20028;-79
2021/08/01 07:08:51;;;;;;;10.93;7.45;;;665.60;2432.00;;;;;;5036426;28;20013;-78
2021/08/01 07:11:17;;;;;;;9.68;7.90;;;665.70;2432.00;;;;;;5036148;28;20732;-79
2021/08/01 07:13:43;;;;;;;10.90;8.20;;;665.70;2432.00;;;;;;5036509;28;20405;-78
2021/08/01 07:16:08;;;;;;;8.43;6.20;;;665.90;2432.00;;;;;;5053712;28;20020;-78
2021/08/01 07:18:34;;;;;;;9.13;7.30;;;665.90;2432.00;;;;;;5035577;28;20032;-79
2021/08/01 07:21:00;;;;;;;13.55;7.43;;;666.10;2432.00;;;;;;5035838;28;20032;-81
2021/08/01 07:23:27;;;;;;;9.40;7.30;;;666.30;2432.00;;;;;;5053721;28;20039;-80
2021/08/01 07:25:53;;;;;;;10.75;7.57;;;;;;;;;;5035369;28;20029;-77
2021/08/01 07:28:19;;;;;;;9.70;6.95;;;;;;;;;;5035548;28;20071;-78
2021/08/01 07:30:45;;;;;;;12.13;7.05;;;;;;;;;;5035723;28;20074;-77
2021/08/01 07:33:11;;;;;;;10.30;7.03;;;;;;;;;;5035227;28;20018;-80
2021/08/01 07:35:37;;;;;;;8.85;6.55;;;;;;;;;;5035661;28;20017;-78
2021/08/01 07:38:04;;;;;;;12.95;7.28;;;;;;;;;;5053786;28;20017;-79
2021/08/01 07:40:30;;;;;;;10.13;6.35;;;;;;;;;;5035331;28;20021;-79
2021/08/01 07:42:56;;;;;;;10.40;6.88;;;;;;;;;;5053126;28;20100;-79
2021/08/01 07:45:30;;;;;;;8.15;6.00;;;692.10;2432.00;;;;;;5053172;28;20365;-79
2021/08/01 07:47:56;;;;;;;13.57;8.32;;;692.10;2432.00;;;;;;5035849;28;20032;-77
2021/08/01 07:50:22;;;;;;;8.30;6.80;;;716.80;2432.00;;;;;;5035635;28;20020;-78
2021/08/01 07:52:48;;;;;;;12.15;7.53;;;716.80;2432.00;;;;;;5035526;28;20443;-78
2021/08/01 07:55:16;;;;;;;11.57;7.32;;;692.00;2432.00;;;;;;5035258;28;20025;-78
2021/08/01 07:57:43;;;;;;;15.65;7.47;;;716.80;2432.00;;;;;;5035244;28;20128;-77
2021/08/01 08:00:11;;;;;;;11.93;7.40;;;717.00;2432.00;;;;;;5036277;28;20040;-77
2021/08/01 08:02:37;;;;;;;10.80;6.93;;;717.20;2432.00;;;;;;5036623;28;20028;-77
2021/08/01 08:05:03;;;;;;;12.82;6.70;;;717.10;2432.00;;;;;;5053743;28;20021;-79
2021/08/01 08:07:29;;;;;;;8.98;6.70;;;717.20;2432.00;;;;;;5039541;28;20527;-78
2021/08/01 08:09:55;;;;;;;14.18;8.80;;;717.40;2432.00;;;;;;5041096;28;20024;-76
2021/08/01 08:12:21;;;;;;;10.57;8.75;;;717.40;2432.00;;;;;;5040160;28;20090;-78
2021/08/01 08:14:47;;;;;;;12.63;8.82;;;717.60;2432.00;;;;;;5040894;28;20486;-76
2021/08/01 08:17:12;;;;;;;12.88;8.88;;;717.70;2432.00;;;;;;5054331;28;20016;-75
2021/08/01 08:19:39;;;;;;;11.27;8.05;;;717.70;2432.00;;;;;;5055340;28;20068;-75
2021/08/01 08:22:06;;;;;;;10.00;7.75;;;742.40;2432.00;;;;;;5054621;28;20021;-76
2021/08/01 08:24:32;;;;;;;10.52;7.93;;;742.70;2432.00;;;;;;5041047;28;20084;-77
2021/08/01 08:26:57;;;;;;;10.23;7.90;;;742.80;2432.00;;;;;;5039818;28;20033;-76
2021/08/01 08:29:24;;;;;;;9.82;7.13;;;;;;;;;;5057541;28;20017;-75
2021/08/01 08:31:51;;;;;;;10.63;8.23;;;768.20;2432.00;;;;;;5079098;28;20001;-80
2021/08/01 08:34:18;;;;;;;8.65;6.45;;;768.10;2432.00;;;;;;5079181;28;20013;-75
2021/08/01 08:36:47;;;;;;;8.93;6.82;;;743.20;2432.00;;;;;;5079160;28;20005;-76
2021/08/01 08:39:17;;;;;;;9.13;6.93;;;743.30;2432.00;;;;;;5062065;28;20029;-77
2021/08/01 08:41:43;;;;;;;8.88;6.88;;;768.20;2432.00;;;;;;5047859;28;20064;-78
2021/08/01 08:44:10;;;;;;;14.43;8.50;;;768.50;2432.00;;;;;;5056415;28;20025;-79
2021/08/01 08:46:37;;;;;;;10.50;7.22;;;768.70;2432.00;;;;;;5038843;28;20514;-80
2021/08/01 08:49:14;;;;;;;9.13;6.38;;;768.40;2432.00;;;;;;5038608;28;20021;-79
2021/08/01 08:51:43;;;;;;;11.10;7.35;;;768.70;2432.00;;;;;;5039095;28;20048;-75
2021/08/01 08:54:16;;;;;;;12.65;8.20;;;768.90;2432.00;;;;;;5057315;28;20520;-78
2021/08/01 08:56:44;;;;;;;17.63;8.90;;;793.70;2432.00;;;;;;5038261;28;20045;-76
2021/08/01 08:59:20;;;;;;;13.73;7.43;;;794.00;2432.00;;;;;;5054406;28;20017;-75
2021/08/01 09:01:46;;;;;;;10.95;7.40;;;793.90;2432.00;;;;;;5037601;28;20037;-78
2021/08/01 09:04:13;;;;;;;9.18;6.70;;;793.70;2432.00;;;;;;5037358;28;20473;-78
2021/08/01 09:06:39;;;;;;;15.00;7.40;;;793.90;2432.00;;;;;;5037891;28;20033;-79
2021/08/01 09:09:04;;;;;;;16.02;7.80;;;794.10;2432.00;;;;;;5037771;28;20080;-76
2021/08/01 09:11:30;;;;;;;14.25;8.20;;;794.40;2432.00;;;;;;5037348;28;20024;-79
2021/08/01 09:13:58;;;;;;;14.13;7.18;;;819.30;2432.00;;;;;;5037618;28;20063;-75
2021/08/01 09:16:44;;;;;;;12.00;7.45;;;794.50;2432.00;;;;;;5036429;28;20115;-76
2021/08/01 09:19:29;;;;;;;16.90;6.57;;;819.50;2432.00;;;;;;5052769;28;20028;-76
2021/08/01 09:22:19;;;;;;;13.73;7.03;;;819.60;2380.80;;;;;;5029039;28;20047;-74
2021/08/01 09:24:47;;;;;;;9.98;6.18;;;819.80;2406.40;;;;;;5035928;28;20086;-77
2021/08/01 09:27:30;;;;;;;15.32;8.10;;;819.80;2278.40;;;;;;5037253;28;20112;-76
2021/08/01 09:29:56;;;;;;;18.05;7.00;;;820.10;2252.80;;;;;;5037411;28;20470;-76
2021/08/01 09:32:24;;;;;;;11.55;8.02;;;819.80;2278.40;;;;;;5054847;28;20017;-76
2021/08/01 09:34:50;;;;;;;10.35;8.00;;;844.90;2252.80;;;;;;5054058;28;20070;-76
2021/08/01 09:37:35;;;;;;;9.25;7.28;;;844.90;2252.80;;;;;;5054678;28;20025;-77
2021/08/01 09:40:10;;;;;;;11.63;7.05;;;845.40;2252.80;;;;;;5036506;28;20086;-78
2021/08/01 09:42:40;;;;;;;10.27;7.25;;;845.40;2201.60;;;;;;5034352;28;20079;-77
2021/08/01 09:45:22;;;;;;;16.15;7.82;;;845.60;2176.00;;;;;;5035214;28;20017;-76
2021/08/01 09:47:50;;;;;;;10.98;8.00;;;845.50;2227.20;;;;;;5036358;28;20485;-77
2021/08/01 09:50:17;;;;;;;10.13;8.20;;;870.50;2201.60;;;;;;5054785;28;20029;-77
2021/08/01 09:52:43;;;;;;;12.63;6.97;;;870.60;2201.60;;;;;;5036472;28;20024;-75
2021/08/01 09:55:19;;;;;;;12.57;7.05;;;870.70;2176.00;;;;;;5054529;28;20021;-76
2021/08/01 09:57:52;;;;;;;9.43;7.97;;;870.80;2150.40;;;;;;5034757;28;20049;-74
2021/08/01 10:00:19;;;;;;;12.02;8.23;;;871.10;2150.40;;;;;;5035784;28;20452;-76
2021/08/01 10:02:45;;;;;;;11.07;6.97;;;871.30;2099.20;;;;;;5054414;28;20425;-76
2021/08/01 10:05:19;;;;;;;11.93;6.93;;;871.30;2124.80;;;;;;5054346;28;20013;-77
2021/08/01 10:07:50;;;;;;;15.55;10.10;;;871.30;2099.20;;;;;;5036384;28;20381;-78
2021/08/01 10:10:26;;;;;;;14.60;7.38;;;896.30;2124.80;;;;;;5054524;28;20025;-76
2021/08/01 10:12:59;;;;;;;13.65;7.05;;;896.40;2099.20;;;;;;5035497;28;20035;-77
2021/08/01 10:15:26;;;;;;;11.05;6.90;;;896.50;2099.20;;;;;;5036876;28;20413;-77
2021/08/01 10:17:53;;;;;;;9.85;6.50;;;896.50;2073.60;;;;;;5036611;28;20021;-80
2021/08/01 10:20:18;;;;;;;8.50;6.63;;;896.70;2073.60;;;;;;5035938;28;20067;-77
2021/08/01 10:22:46;;;;;;;9.75;6.28;;;896.90;2048.00;;;;;;5036389;28;20040;-78
2021/08/01 10:25:20;;;;;;;15.52;8.32;;;896.90;2048.00;;;;;;5036381;28;20478;-77
2021/08/01 10:27:51;;;;;;;9.50;6.43;;;896.70;2073.60;;;;;;5053269;28;20013;-79
2021/08/01 10:30:21;;;;;;;13.60;6.70;;;896.70;2048.00;;;;;;5036387;28;20032;-76
2021/08/01 10:32:53;;;;;;;10.77;7.50;;;921.70;2073.60;;;;;;5036274;28;20540;-78
2021/08/01 10:35:22;;;;;;;11.98;7.68;;;896.80;2022.40;;;;;;5036046;28;20367;-80
2021/08/01 10:37:59;;;;;;;12.77;6.68;;;896.50;2022.40;;;;;;5036356;28;20060;-79
2021/08/01 10:40:26;;;;;;;17.58;12.27;;;896.90;1996.80;;;;;;5054027;28;20033;-78
2021/08/01 10:43:00;;;;;;;17.00;9.13;;;922.00;2022.40;;;;;;5035783;28;20043;-80
2021/08/01 10:45:26;;;;;;;13.73;7.30;;;922.30;1996.80;;;;;;5036610;28;20025;-79
2021/08/01 10:47:53;;;;;;;13.77;6.13;;;922.40;1971.20;;;;;;5054092;28;20025;-79
2021/08/01 10:50:25;;;;;;;14.38;6.60;;;922.40;1945.60;;;;;;5035210;28;20059;-78
2021/08/01 10:53:19;;;;;;;11.73;8.27;;;922.40;1945.60;;;;;;5034007;28;20021;-79
2021/08/01 10:56:14;;;;;;;11.30;7.20;;;947.20;1996.80;;;;;;5036086;28;20051;-80
2021/08/01 10:58:40;;;;;;;14.13;6.80;;;947.50;1971.20;;;;;;5035666;28;20466;-78
2021/08/01 11:01:08;;;;;;;14.45;7.53;;;947.70;1945.60;;;;;;5053878;28;20086;-78
2021/08/01 11:03:41;;;;;;;9.98;7.38;;;947.90;1945.60;;;;;;5035710;28;20119;-78
2021/08/01 11:06:36;;;;;;;12.95;6.90;;;947.70;1945.60;;;;;;5035969;28;20108;-79
2021/08/01 11:09:12;;;;;;;11.45;6.47;;;948.10;1945.60;;;;;;5035627;28;20052;-82
2021/08/01 11:11:38;;;;;;;13.18;6.40;;;947.80;1920.00;;;;;;5035131;28;20025;-79
2021/08/01 11:14:04;;;;;;;10.35;5.90;;;948.10;1894.40;;;;;;5035593;28;20021;-80
2021/08/01 11:16:46;;;;;;;11.30;5.80;;;948.00;1894.40;;;;;;5036681;28;20076;-79
2021/08/01 11:19:35;;;;;;;10.35;6.22;;;947.20;1920.00;;;;;;5036316;28;20343;-79
2021/08/01 11:22:00;;;;;;;10.30;6.22;;;948.10;1920.00;;;;;;5030688;28;20032;-78
2021/08/01 11:24:26;;;;;;;15.35;6.82;;;973.00;1868.80;;;;;;5035150;28;20082;-79
2021/08/01 11:27:04;;;;;;;8.63;6.10;;;973.30;1920.00;;;;;;5036550;28;20075;-82
2021/08/01 11:29:31;;;;;;;12.25;6.25;;;973.20;1843.20;;;;;;5036957;28;20021;-79
2021/08/01 11:32:07;;;;;;;8.40;5.93;;;973.10;1868.80;;;;;;5044938;28;20027;-80
2021/08/01 11:34:34;;;;;;;15.20;6.95;;;973.30;1843.20;;;;;;5038877;28;20378;-80
2021/08/01 11:37:17;;;;;;;11.30;6.10;;;973.70;1843.20;;;;;;5033155;28;20021;-80
2021/08/01 11:39:54;;;;;;;14.23;6.70;;;998.50;1843.20;;;;;;5033382;28;20112;-80
2021/08/01 11:42:30;;;;;;;9.45;5.65;;;998.70;1817.60;;;;;;5036490;28;20057;-78
2021/08/01 11:45:01;;;;;;;16.60;6.85;;;998.60;1817.60;;;;;;5035531;28;20032;-81
2021/08/01 11:47:28;;;;;;;8.70;5.28;;;998.50;1817.60;;;;;;5035823;28;20032;-80
2021/08/01 11:49:55;;;;;;;12.63;6.10;;;973.40;1792.00;;;;;;5038077;28;20459;-81
2021/08/01 11:52:44;;;;;;;11.57;6.30;;;998.50;1817.60;;;;;;5055590;28;20447;-80
2021/08/01 11:55:20;;;;;;;13.63;6.10;;;998.60;1817.60;;;;;;5037765;28;20055;-79
2021/08/01 11:57:50;;;;;;;10.68;6.22;;;999.10;1792.00;;;;;;5036355;28;20390;-81
2021/08/01 12:00:16;;;;;;;13.20;7.30;;;999.20;1792.00;;;;;;5055202;28;20053;-81
2021/08/01 12:02:56;;;;;;;13.30;6.22;;;1024.00;1766.40;;;;;;5038386;28;20028;-80
2021/08/01 12:05:22;;;;;;;11.15;6.43;;;1024.40;1715.20;;;;;;5056767;28;20013;-81
2021/08/01 12:07:49;;;;;;;13.18;6.25;;;999.30;1689.60;;;;;;5037525;28;20156;-80
2021/08/01 12:10:25;;;;;;;11.52;6.32;;;1024.50;1689.60;;;;;;5043334;28;20044;-79
2021/08/01 12:12:54;;;;;;;8.65;5.55;;;1049.70;1715.20;;;;;;5044237;28;20032;-81
2021/08/01 12:15:22;;;;;;;28.33;23.00;;;1024.60;1664.00;;;;;;5059681;28;20013;-81
2021/08/01 12:17:49;;;;;;;29.67;20.90;;;1024.90;1638.40;;;;;;5056618;28;20013;-79
2021/08/01 12:20:15;;;;;;;16.73;9.73;;;1024.90;1638.40;;;;;;5056158;28;20056;-78
2021/08/01 12:22:50;;;;;;;15.05;11.75;;;1024.50;1638.40;;;;;;5038631;28;20031;-79
2021/08/01 12:25:16;;;;;;;12.05;7.72;;;1024.70;1612.80;;;;;;5036550;28;20021;-80
2021/08/01 12:27:43;;;;;;;10.65;8.55;;;1049.60;1587.20;;;;;;5055428;28;20527;-79
2021/08/01 12:30:20;;;;;;;12.20;8.10;;;1049.90;1561.60;;;;;;5037948;28;20032;-78
2021/08/01 12:32:51;;;;;;;14.35;7.55;;;1049.70;1536.00;;;;;;5038272;28;20021;-79
2021/08/01 12:35:17;;;;;;;;;;;1049.90;1510.40;;;;;;5038040;28;20029;-80
2021/08/01 12:37:59;;;;;;;14.77;7.00;;;1049.90;1459.20;;;;;;5038213;28;19911;-77
2021/08/01 12:40:40;;;;;;;13.75;6.32;;;1049.90;1484.80;;;;;;5038148;28;20462;-80
2021/08/01 12:43:08;;;;;;;11.20;6.60;;;1024.70;1433.60;;;;;;5056004;28;20020;-83
2021/08/01 12:45:34;;;;;;;12.68;7.20;;;1050.00;1484.80;;;;;;5056155;28;20025;-82
2021/08/01 12:48:01;;;;;;;9.10;6.13;;;1050.20;1459.20;;;;;;5038284;28;20059;-80
2021/08/01 12:50:28;;;;;;;10.95;6.40;;;1050.30;1484.80;;;;;;5037956;28;20040;-78
2021/08/01 12:52:55;;;;;;;16.88;7.50;;;1050.00;1510.40;;;;;;5038159;28;20021;-81
2021/08/01 12:55:23;;;;;;;14.77;6.97;;;1050.30;1484.80;;;;;;5037716;28;20055;-80
2021/08/01 12:58:04;;;;;;;9.98;6.88;;;1049.60;1459.20;;;;;;5037250;28;20037;-80
2021/08/01 13:00:31;;;;;;;10.25;7.22;;;1024.40;1459.20;;;;;;5037948;28;20082;-79